sensor_id;sensor_type;location;lat;lon;timestamp;temperature;humidity
6956;DHT22;50345;51.136;16.886;2023-03-23T00:00:06;11.60;99.90
6956;DHT22;50345;51.136;16.886;2023-03-23T00:02:32;11.50;99.90
6956;DHT22;50345;51.136;16.886;2023-03-23T00:05:01;11.50;99.90
6956;DHT22;50345;51.136;16.886;2023-03-23T00:07:29;11.40;99.90
6956;DHT22;50345;51.136;16.886;2023-03-23T00:09:55;11.40;99.90
6956;DHT22;50345;51.136;16.886;2023-03-23T00:12:23;11.30;99.90
6956;DHT22;50345;51.136;16.886;2023-03-23T00:14:55;11.30;99.90
6956;DHT22;50345;51.136;16.886;2023-03-23T00:17:21;11.30;99.90
6956;DHT22;50345;51.136;16.886;2023-03-23T00:19:48;11.30;99.90
6956;DHT22;50345;51.136;16.886;2023-03-23T00:22:16;11.30;99.90
6956;DHT22;50345;51.136;16.886;2023-03-23T00:24:43;11.30;99.90
6956;DHT22;50345;51.136;16.886;2023-03-23T00:27:09;11.30;99.90
6956;DHT22;50345;51.136;16.886;2023-03-23T00:29:38;11.30;99.90
6956;DHT22;50345;51.136;16.886;2023-03-23T00:32:03;11.30;99.90
6956;DHT22;50345;51.136;16.886;2023-03-23T00:34:29;11.30;99.90
6956;DHT22;50345;51.136;16.886;2023-03-23T00:36:58;11.30;99.90
6956;DHT22;50345;51.136;16.886;2023-03-23T00:39:25;11.20;99.90
6956;DHT22;50345;51.136;16.886;2023-03-23T00:41:53;11.20;99.90
6956;DHT22;50345;51.136;16.886;2023-03-23T00:44:19;11.10;99.90
6956;DHT22;50345;51.136;16.886;2023-03-23T00:46:49;11.10;99.90
6956;DHT22;50345;51.136;16.886;2023-03-23T00:49:20;11.00;99.90
6956;DHT22;50345;51.136;16.886;2023-03-23T00:51:54;11.00;99.90
6956;DHT22;50345;51.136;16.886;2023-03-23T00:54:21;11.00;99.90
6956;DHT22;50345;51.136;16.886;2023-03-23T00:56:47;11.00;99.90
6956;DHT22;50345;51.136;16.886;2023-03-23T00:59:13;11.00;99.90
6956;DHT22;50345;51.136;16.886;2023-03-23T01:01:39;11.00;99.90
6956;DHT22;50345;51.136;16.886;2023-03-23T01:04:05;11.00;99.90
6956;DHT22;50345;51.136;16.886;2023-03-23T01:06:34;11.00;99.90
6956;DHT22;50345;51.136;16.886;2023-03-23T01:09:11;11.00;99.90
6956;DHT22;50345;51.136;16.886;2023-03-23T01:11:43;11.00;99.90
6956;DHT22;50345;51.136;16.886;2023-03-23T01:14:10;11.00;99.90
6956;DHT22;50345;51.136;16.886;2023-03-23T01:16:36;11.00;99.90
6956;DHT22;50345;51.136;16.886;2023-03-23T01:19:02;11.00;99.90
6956;DHT22;50345;51.136;16.886;2023-03-23T01:21:27;11.00;99.90
6956;DHT22;50345;51.136;16.886;2023-03-23T01:23:53;11.10;99.90
6956;DHT22;50345;51.136;16.886;2023-03-23T01:26:21;11.10;99.90
6956;DHT22;50345;51.136;16.886;2023-03-23T01:28:47;11.10;99.90
6956;DHT22;50345;51.136;16.886;2023-03-23T01:31:16;11.10;99.90
6956;DHT22;50345;51.136;16.886;2023-03-23T01:33:42;11.10;99.90
6956;DHT22;50345;51.136;16.886;2023-03-23T01:36:14;11.10;99.90
6956;DHT22;50345;51.136;16.886;2023-03-23T01:38:41;11.10;99.90
6956;DHT22;50345;51.136;16.886;2023-03-23T01:41:07;11.20;99.90
6956;DHT22;50345;51.136;16.886;2023-03-23T01:43:33;11.20;99.90
6956;DHT22;50345;51.136;16.886;2023-03-23T01:45:59;11.10;99.90
6956;DHT22;50345;51.136;16.886;2023-03-23T01:48:33;11.10;99.90
6956;DHT22;50345;51.136;16.886;2023-03-23T01:51:13;11.10;99.90
6956;DHT22;50345;51.136;16.886;2023-03-23T01:53:59;11.10;99.90
6956;DHT22;50345;51.136;16.886;2023-03-23T01:56:33;11.10;99.90
6956;DHT22;50345;51.136;16.886;2023-03-23T01:59:03;11.20;99.90
6956;DHT22;50345;51.136;16.886;2023-03-23T02:01:29;11.20;99.90
6956;DHT22;50345;51.136;16.886;2023-03-23T02:03:56;11.20;99.90
6956;DHT22;50345;51.136;16.886;2023-03-23T02:06:22;11.30;99.90
6956;DHT22;50345;51.136;16.886;2023-03-23T02:08:49;11.20;99.90
6956;DHT22;50345;51.136;16.886;2023-03-23T02:11:18;11.30;99.90
6956;DHT22;50345;51.136;16.886;2023-03-23T02:13:44;11.20;99.90
6956;DHT22;50345;51.136;16.886;2023-03-23T02:35:56;11.40;99.90
6956;DHT22;50345;51.136;16.886;2023-03-23T02:38:39;11.40;99.90
6956;DHT22;50345;51.136;16.886;2023-03-23T02:41:08;11.30;99.90
6956;DHT22;50345;51.136;16.886;2023-03-23T02:43:42;11.30;99.90
6956;DHT22;50345;51.136;16.886;2023-03-23T02:46:10;11.40;99.90
6956;DHT22;50345;51.136;16.886;2023-03-23T02:48:37;11.40;99.90
6956;DHT22;50345;51.136;16.886;2023-03-23T02:51:04;11.40;99.90
6956;DHT22;50345;51.136;16.886;2023-03-23T02:53:30;11.30;99.90
6956;DHT22;50345;51.136;16.886;2023-03-23T02:55:59;11.40;99.90
6956;DHT22;50345;51.136;16.886;2023-03-23T02:58:28;11.30;99.90
6956;DHT22;50345;51.136;16.886;2023-03-23T03:00:55;11.30;99.90
6956;DHT22;50345;51.136;16.886;2023-03-23T03:03:24;11.30;99.90
6956;DHT22;50345;51.136;16.886;2023-03-23T03:08:44;11.20;99.90
6956;DHT22;50345;51.136;16.886;2023-03-23T03:11:16;11.20;99.90
6956;DHT22;50345;51.136;16.886;2023-03-23T03:13:52;11.20;99.90
6956;DHT22;50345;51.136;16.886;2023-03-23T03:21:43;11.20;99.90
6956;DHT22;50345;51.136;16.886;2023-03-23T03:24:11;11.20;99.90
6956;DHT22;50345;51.136;16.886;2023-03-23T03:26:41;11.30;99.90
6956;DHT22;50345;51.136;16.886;2023-03-23T03:29:11;11.30;99.90
6956;DHT22;50345;51.136;16.886;2023-03-23T03:31:39;11.30;99.90
6956;DHT22;50345;51.136;16.886;2023-03-23T03:34:14;11.40;99.90
6956;DHT22;50345;51.136;16.886;2023-03-23T03:36:46;11.40;99.90
6956;DHT22;50345;51.136;16.886;2023-03-23T03:39:14;11.40;99.90
6956;DHT22;50345;51.136;16.886;2023-03-23T03:41:41;11.50;99.90
6956;DHT22;50345;51.136;16.886;2023-03-23T03:44:08;11.60;99.90
6956;DHT22;50345;51.136;16.886;2023-03-23T03:46:35;11.60;99.90
6956;DHT22;50345;51.136;16.886;2023-03-23T03:49:02;11.70;99.90
6956;DHT22;50345;51.136;16.886;2023-03-23T03:51:29;11.70;99.90
6956;DHT22;50345;51.136;16.886;2023-03-23T03:53:56;11.70;99.90
6956;DHT22;50345;51.136;16.886;2023-03-23T03:56:22;11.70;99.90
6956;DHT22;50345;51.136;16.886;2023-03-23T03:58:49;11.70;99.90
6956;DHT22;50345;51.136;16.886;2023-03-23T04:01:16;11.70;99.90
6956;DHT22;50345;51.136;16.886;2023-03-23T04:03:42;11.70;99.90
6956;DHT22;50345;51.136;16.886;2023-03-23T04:06:09;11.70;99.90
6956;DHT22;50345;51.136;16.886;2023-03-23T04:08:35;11.70;99.90
6956;DHT22;50345;51.136;16.886;2023-03-23T04:11:03;11.80;99.90
6956;DHT22;50345;51.136;16.886;2023-03-23T04:13:30;11.80;99.90
6956;DHT22;50345;51.136;16.886;2023-03-23T04:15:55;11.80;99.90
6956;DHT22;50345;51.136;16.886;2023-03-23T04:18:22;11.80;99.90
6956;DHT22;50345;51.136;16.886;2023-03-23T04:20:50;11.80;99.90
6956;DHT22;50345;51.136;16.886;2023-03-23T04:23:19;11.80;99.90
6956;DHT22;50345;51.136;16.886;2023-03-23T04:25:48;11.80;99.90
6956;DHT22;50345;51.136;16.886;2023-03-23T04:28:15;11.80;99.90
6956;DHT22;50345;51.136;16.886;2023-03-23T04:30:42;11.90;99.90
6956;DHT22;50345;51.136;16.886;2023-03-23T04:33:09;11.90;99.90
6956;DHT22;50345;51.136;16.886;2023-03-23T04:35:41;11.90;99.90
6956;DHT22;50345;51.136;16.886;2023-03-23T04:38:08;11.90;99.90
6956;DHT22;50345;51.136;16.886;2023-03-23T04:40:38;12.00;99.90
6956;DHT22;50345;51.136;16.886;2023-03-23T04:43:04;12.00;99.90
6956;DHT22;50345;51.136;16.886;2023-03-23T04:45:32;12.00;99.90
6956;DHT22;50345;51.136;16.886;2023-03-23T04:47:58;12.10;99.90
6956;DHT22;50345;51.136;16.886;2023-03-23T04:50:27;12.10;99.90
6956;DHT22;50345;51.136;16.886;2023-03-23T04:52:53;12.10;99.90
6956;DHT22;50345;51.136;16.886;2023-03-23T04:55:23;12.10;99.90
6956;DHT22;50345;51.136;16.886;2023-03-23T04:57:49;12.20;99.90
6956;DHT22;50345;51.136;16.886;2023-03-23T05:00:15;12.20;99.90
6956;DHT22;50345;51.136;16.886;2023-03-23T05:02:46;12.20;99.90
6956;DHT22;50345;51.136;16.886;2023-03-23T05:05:13;12.20;99.90
6956;DHT22;50345;51.136;16.886;2023-03-23T05:07:41;12.30;99.90
6956;DHT22;50345;51.136;16.886;2023-03-23T05:10:09;12.30;99.90
6956;DHT22;50345;51.136;16.886;2023-03-23T05:12:35;12.30;99.90
6956;DHT22;50345;51.136;16.886;2023-03-23T05:15:01;12.30;99.90
6956;DHT22;50345;51.136;16.886;2023-03-23T05:17:27;12.30;99.90
6956;DHT22;50345;51.136;16.886;2023-03-23T05:19:56;12.30;99.90
6956;DHT22;50345;51.136;16.886;2023-03-23T05:22:22;12.40;99.90
6956;DHT22;50345;51.136;16.886;2023-03-23T05:24:48;12.40;99.90
6956;DHT22;50345;51.136;16.886;2023-03-23T05:27:17;12.40;99.90
6956;DHT22;50345;51.136;16.886;2023-03-23T05:29:45;12.40;99.90
6956;DHT22;50345;51.136;16.886;2023-03-23T05:32:15;12.50;99.90
6956;DHT22;50345;51.136;16.886;2023-03-23T05:34:42;12.50;99.90
6956;DHT22;50345;51.136;16.886;2023-03-23T05:37:09;12.50;99.90
6956;DHT22;50345;51.136;16.886;2023-03-23T05:39:35;12.50;99.90
6956;DHT22;50345;51.136;16.886;2023-03-23T05:42:02;12.60;99.90
6956;DHT22;50345;51.136;16.886;2023-03-23T05:44:28;12.60;99.90
6956;DHT22;50345;51.136;16.886;2023-03-23T05:46:54;12.60;99.90
6956;DHT22;50345;51.136;16.886;2023-03-23T05:49:20;12.70;99.90
6956;DHT22;50345;51.136;16.886;2023-03-23T05:51:46;12.70;99.90
6956;DHT22;50345;51.136;16.886;2023-03-23T05:54:12;12.70;99.90
6956;DHT22;50345;51.136;16.886;2023-03-23T05:56:39;12.70;99.90
6956;DHT22;50345;51.136;16.886;2023-03-23T05:59:05;12.80;99.90
6956;DHT22;50345;51.136;16.886;2023-03-23T06:01:31;12.80;99.90
6956;DHT22;50345;51.136;16.886;2023-03-23T06:03:57;12.80;99.90
6956;DHT22;50345;51.136;16.886;2023-03-23T06:06:30;12.90;99.90
6956;DHT22;50345;51.136;16.886;2023-03-23T06:08:57;12.90;99.90
6956;DHT22;50345;51.136;16.886;2023-03-23T06:11:24;13.00;99.90
6956;DHT22;50345;51.136;16.886;2023-03-23T06:13:50;13.20;99.90
6956;DHT22;50345;51.136;16.886;2023-03-23T06:16:16;13.30;99.90
6956;DHT22;50345;51.136;16.886;2023-03-23T06:18:41;13.40;99.90
6956;DHT22;50345;51.136;16.886;2023-03-23T06:21:08;13.70;99.90
6956;DHT22;50345;51.136;16.886;2023-03-23T06:23:34;13.80;99.90
6956;DHT22;50345;51.136;16.886;2023-03-23T06:26:02;13.90;99.90
6956;DHT22;50345;51.136;16.886;2023-03-23T06:28:29;14.00;99.90
6956;DHT22;50345;51.136;16.886;2023-03-23T06:30:55;14.20;99.90
6956;DHT22;50345;51.136;16.886;2023-03-23T06:33:21;14.50;99.90
6956;DHT22;50345;51.136;16.886;2023-03-23T06:35:48;14.50;99.90
6956;DHT22;50345;51.136;16.886;2023-03-23T06:38:15;14.70;99.90
6956;DHT22;50345;51.136;16.886;2023-03-23T06:40:41;14.70;99.90
6956;DHT22;50345;51.136;16.886;2023-03-23T06:43:11;14.80;99.90
6956;DHT22;50345;51.136;16.886;2023-03-23T06:45:37;14.80;99.90
6956;DHT22;50345;51.136;16.886;2023-03-23T06:48:02;14.90;99.90
6956;DHT22;50345;51.136;16.886;2023-03-23T06:50:28;15.00;99.90
6956;DHT22;50345;51.136;16.886;2023-03-23T06:52:54;15.00;99.90
6956;DHT22;50345;51.136;16.886;2023-03-23T06:55:19;15.10;99.90
6956;DHT22;50345;51.136;16.886;2023-03-23T06:57:47;15.10;99.90
6956;DHT22;50345;51.136;16.886;2023-03-23T07:00:13;15.20;99.90
6956;DHT22;50345;51.136;16.886;2023-03-23T07:02:42;15.30;99.90
6956;DHT22;50345;51.136;16.886;2023-03-23T07:05:10;15.40;99.90
6956;DHT22;50345;51.136;16.886;2023-03-23T07:07:37;15.50;99.90
6956;DHT22;50345;51.136;16.886;2023-03-23T07:10:05;15.60;99.90
6956;DHT22;50345;51.136;16.886;2023-03-23T07:12:31;15.60;99.90
6956;DHT22;50345;51.136;16.886;2023-03-23T07:14:58;15.60;99.90
6956;DHT22;50345;51.136;16.886;2023-03-23T07:17:24;15.60;99.90
6956;DHT22;50345;51.136;16.886;2023-03-23T07:19:50;15.60;99.90
6956;DHT22;50345;51.136;16.886;2023-03-23T07:22:16;15.60;99.90
6956;DHT22;50345;51.136;16.886;2023-03-23T07:24:41;15.60;99.90
6956;DHT22;50345;51.136;16.886;2023-03-23T07:27:08;15.50;99.90
6956;DHT22;50345;51.136;16.886;2023-03-23T07:29:34;15.50;99.90
6956;DHT22;50345;51.136;16.886;2023-03-23T07:32:01;15.50;99.90
6956;DHT22;50345;51.136;16.886;2023-03-23T07:34:27;15.50;99.90
6956;DHT22;50345;51.136;16.886;2023-03-23T07:36:53;15.60;99.90
6956;DHT22;50345;51.136;16.886;2023-03-23T07:39:19;15.60;99.90
6956;DHT22;50345;51.136;16.886;2023-03-23T07:41:45;15.70;99.90
6956;DHT22;50345;51.136;16.886;2023-03-23T07:44:10;16.00;99.90
6956;DHT22;50345;51.136;16.886;2023-03-23T07:46:36;16.20;98.30
6956;DHT22;50345;51.136;16.886;2023-03-23T07:49:02;16.30;98.20
6956;DHT22;50345;51.136;16.886;2023-03-23T07:51:31;16.30;97.60
6956;DHT22;50345;51.136;16.886;2023-03-23T07:53:57;16.20;96.80
6956;DHT22;50345;51.136;16.886;2023-03-23T07:56:23;16.00;97.90
6956;DHT22;50345;51.136;16.886;2023-03-23T07:58:49;16.00;98.40
6956;DHT22;50345;51.136;16.886;2023-03-23T08:01:15;16.00;99.20
6956;DHT22;50345;51.136;16.886;2023-03-23T08:03:41;16.00;99.10
6956;DHT22;50345;51.136;16.886;2023-03-23T08:06:08;15.90;98.90
6956;DHT22;50345;51.136;16.886;2023-03-23T08:08:34;16.00;99.50
6956;DHT22;50345;51.136;16.886;2023-03-23T08:10:59;16.10;99.30
6956;DHT22;50345;51.136;16.886;2023-03-23T08:13:25;16.20;99.20
6956;DHT22;50345;51.136;16.886;2023-03-23T08:15:51;16.50;98.30
6956;DHT22;50345;51.136;16.886;2023-03-23T08:18:17;16.50;98.50
6956;DHT22;50345;51.136;16.886;2023-03-23T08:20:43;16.70;97.60
6956;DHT22;50345;51.136;16.886;2023-03-23T08:23:10;16.90;96.40
6956;DHT22;50345;51.136;16.886;2023-03-23T08:25:37;17.20;95.40
6956;DHT22;50345;51.136;16.886;2023-03-23T08:28:03;17.30;95.30
6956;DHT22;50345;51.136;16.886;2023-03-23T08:30:30;17.30;94.20
6956;DHT22;50345;51.136;16.886;2023-03-23T08:32:59;17.70;91.30
6956;DHT22;50345;51.136;16.886;2023-03-23T08:35:26;17.90;89.90
6956;DHT22;50345;51.136;16.886;2023-03-23T08:37:52;17.90;90.20
6956;DHT22;50345;51.136;16.886;2023-03-23T08:40:21;18.10;86.90
6956;DHT22;50345;51.136;16.886;2023-03-23T08:42:48;18.10;83.60
6956;DHT22;50345;51.136;16.886;2023-03-23T08:45:17;18.10;81.20
6956;DHT22;50345;51.136;16.886;2023-03-23T08:47:43;18.20;80.10
6956;DHT22;50345;51.136;16.886;2023-03-23T08:50:12;18.20;78.70
6956;DHT22;50345;51.136;16.886;2023-03-23T08:52:38;18.40;75.60
6956;DHT22;50345;51.136;16.886;2023-03-23T08:55:05;18.60;72.40
6956;DHT22;50345;51.136;16.886;2023-03-23T08:57:31;18.70;71.70
6956;DHT22;50345;51.136;16.886;2023-03-23T08:59:56;18.70;70.70
6956;DHT22;50345;51.136;16.886;2023-03-23T09:02:39;18.70;69.90
6956;DHT22;50345;51.136;16.886;2023-03-23T09:05:05;18.80;70.20
6956;DHT22;50345;51.136;16.886;2023-03-23T09:07:32;18.80;71.00
6956;DHT22;50345;51.136;16.886;2023-03-23T09:09:57;18.90;69.90
6956;DHT22;50345;51.136;16.886;2023-03-23T09:12:23;18.80;69.00
6956;DHT22;50345;51.136;16.886;2023-03-23T09:14:49;18.60;75.20
6956;DHT22;50345;51.136;16.886;2023-03-23T09:17:15;18.50;80.40
6956;DHT22;50345;51.136;16.886;2023-03-23T09:19:41;18.50;82.40
6956;DHT22;50345;51.136;16.886;2023-03-23T09:22:07;18.60;75.60
6956;DHT22;50345;51.136;16.886;2023-03-23T09:24:33;18.50;74.50
6956;DHT22;50345;51.136;16.886;2023-03-23T09:26:59;18.50;73.70
6956;DHT22;50345;51.136;16.886;2023-03-23T09:29:26;18.70;73.70
6956;DHT22;50345;51.136;16.886;2023-03-23T09:31:53;18.90;72.50
6956;DHT22;50345;51.136;16.886;2023-03-23T09:34:18;19.10;69.50
6956;DHT22;50345;51.136;16.886;2023-03-23T09:36:44;19.20;69.10
6956;DHT22;50345;51.136;16.886;2023-03-23T09:39:10;19.40;68.80
6956;DHT22;50345;51.136;16.886;2023-03-23T09:49:42;19.40;66.40
6956;DHT22;50345;51.136;16.886;2023-03-23T09:54:40;19.30;65.60
6956;DHT22;50345;51.136;16.886;2023-03-23T09:57:34;19.40;64.80
6956;DHT22;50345;51.136;16.886;2023-03-23T10:08:01;20.20;64.70
6956;DHT22;50345;51.136;16.886;2023-03-23T10:16:06;20.50;59.60
6956;DHT22;50345;51.136;16.886;2023-03-23T10:18:41;20.50;59.10
6956;DHT22;50345;51.136;16.886;2023-03-23T10:21:14;20.50;58.70
6956;DHT22;50345;51.136;16.886;2023-03-23T10:26:11;20.80;56.00
6956;DHT22;50345;51.136;16.886;2023-03-23T10:28:43;20.60;55.50
6956;DHT22;50345;51.136;16.886;2023-03-23T10:31:13;20.30;55.50
6956;DHT22;50345;51.136;16.886;2023-03-23T10:33:47;20.00;56.30
6956;DHT22;50345;51.136;16.886;2023-03-23T10:36:19;19.70;56.90
6956;DHT22;50345;51.136;16.886;2023-03-23T10:39:00;19.50;57.20
6956;DHT22;50345;51.136;16.886;2023-03-23T10:41:28;19.40;57.80
6956;DHT22;50345;51.136;16.886;2023-03-23T10:43:54;19.60;57.70
6956;DHT22;50345;51.136;16.886;2023-03-23T10:48:57;19.90;56.90
6956;DHT22;50345;51.136;16.886;2023-03-23T10:51:31;19.90;56.20
6956;DHT22;50345;51.136;16.886;2023-03-23T10:54:00;20.60;56.30
6956;DHT22;50345;51.136;16.886;2023-03-23T10:56:43;21.50;54.40
6956;DHT22;50345;51.136;16.886;2023-03-23T10:59:26;21.80;54.20
6956;DHT22;50345;51.136;16.886;2023-03-23T11:01:55;22.00;54.10
6956;DHT22;50345;51.136;16.886;2023-03-23T11:04:22;21.80;52.90
6956;DHT22;50345;51.136;16.886;2023-03-23T11:06:52;21.60;53.50
6956;DHT22;50345;51.136;16.886;2023-03-23T11:09:21;21.60;52.10
6956;DHT22;50345;51.136;16.886;2023-03-23T11:11:54;21.30;51.80
6956;DHT22;50345;51.136;16.886;2023-03-23T11:14:29;20.80;53.00
6956;DHT22;50345;51.136;16.886;2023-03-23T11:16:57;20.60;53.20
6956;DHT22;50345;51.136;16.886;2023-03-23T11:19:25;20.60;53.80
6956;DHT22;50345;51.136;16.886;2023-03-23T11:21:53;20.60;53.40
6956;DHT22;50345;51.136;16.886;2023-03-23T11:24:23;20.40;53.90
6956;DHT22;50345;51.136;16.886;2023-03-23T11:26:50;20.20;53.90
6956;DHT22;50345;51.136;16.886;2023-03-23T11:29:21;20.20;54.50
6956;DHT22;50345;51.136;16.886;2023-03-23T11:31:51;20.00;54.60
6956;DHT22;50345;51.136;16.886;2023-03-23T11:34:24;19.90;54.90
6956;DHT22;50345;51.136;16.886;2023-03-23T11:36:59;19.90;55.10
6956;DHT22;50345;51.136;16.886;2023-03-23T11:39:34;19.90;55.20
6956;DHT22;50345;51.136;16.886;2023-03-23T11:42:11;20.00;55.20
6956;DHT22;50345;51.136;16.886;2023-03-23T11:44:43;20.10;55.00
6956;DHT22;50345;51.136;16.886;2023-03-23T11:48:20;20.00;55.00
6956;DHT22;50345;51.136;16.886;2023-03-23T11:50:33;20.00;55.00
6956;DHT22;50345;51.136;16.886;2023-03-23T11:53:10;19.80;55.50
6956;DHT22;50345;51.136;16.886;2023-03-23T11:55:53;19.70;55.90
6956;DHT22;50345;51.136;16.886;2023-03-23T11:58:21;19.50;56.60
6956;DHT22;50345;51.136;16.886;2023-03-23T12:26:18;19.60;59.70
6956;DHT22;50345;51.136;16.886;2023-03-23T12:45:58;19.40;59.50
6956;DHT22;50345;51.136;16.886;2023-03-23T12:48:36;19.40;59.70
6956;DHT22;50345;51.136;16.886;2023-03-23T12:51:14;19.50;59.70
6956;DHT22;50345;51.136;16.886;2023-03-23T12:59:17;19.60;60.80
6956;DHT22;50345;51.136;16.886;2023-03-23T13:01:56;19.60;61.30
6956;DHT22;50345;51.136;16.886;2023-03-23T13:04:35;19.70;62.10
6956;DHT22;50345;51.136;16.886;2023-03-23T13:07:06;19.90;61.70
6956;DHT22;50345;51.136;16.886;2023-03-23T13:09:55;19.90;60.70
6956;DHT22;50345;51.136;16.886;2023-03-23T13:12:25;20.10;61.20
6956;DHT22;50345;51.136;16.886;2023-03-23T13:15:32;20.20;60.90
6956;DHT22;50345;51.136;16.886;2023-03-23T13:18:08;20.20;62.10
6956;DHT22;50345;51.136;16.886;2023-03-23T13:23:21;20.10;60.80
6956;DHT22;50345;51.136;16.886;2023-03-23T13:25:54;19.90;60.70
6956;DHT22;50345;51.136;16.886;2023-03-23T13:28:28;19.90;61.20
6956;DHT22;50345;51.136;16.886;2023-03-23T13:31:14;19.70;60.80
6956;DHT22;50345;51.136;16.886;2023-03-23T13:33:46;19.70;61.20
6956;DHT22;50345;51.136;16.886;2023-03-23T13:38:57;19.60;62.20
6956;DHT22;50345;51.136;16.886;2023-03-23T13:41:24;19.50;62.50
6956;DHT22;50345;51.136;16.886;2023-03-23T13:43:51;19.50;63.00
6956;DHT22;50345;51.136;16.886;2023-03-23T13:46:24;19.40;63.30
6956;DHT22;50345;51.136;16.886;2023-03-23T13:54:14;19.30;63.50
6956;DHT22;50345;51.136;16.886;2023-03-23T13:56:42;19.20;63.50
6956;DHT22;50345;51.136;16.886;2023-03-23T13:59:28;19.10;63.80
6956;DHT22;50345;51.136;16.886;2023-03-23T14:01:55;18.90;64.30
6956;DHT22;50345;51.136;16.886;2023-03-23T14:04:24;18.80;65.10
6956;DHT22;50345;51.136;16.886;2023-03-23T14:06:57;18.80;65.80
6956;DHT22;50345;51.136;16.886;2023-03-23T14:09:37;18.70;66.60
6956;DHT22;50345;51.136;16.886;2023-03-23T14:12:13;18.70;67.40
6956;DHT22;50345;51.136;16.886;2023-03-23T14:14:49;18.70;68.00
6956;DHT22;50345;51.136;16.886;2023-03-23T14:17:41;18.70;68.10
6956;DHT22;50345;51.136;16.886;2023-03-23T14:20:26;18.60;68.20
6956;DHT22;50345;51.136;16.886;2023-03-23T14:22:55;18.50;69.00
6956;DHT22;50345;51.136;16.886;2023-03-23T14:25:22;18.40;69.90
6956;DHT22;50345;51.136;16.886;2023-03-23T14:27:51;18.40;70.50
6956;DHT22;50345;51.136;16.886;2023-03-23T14:30:24;18.40;71.00
6956;DHT22;50345;51.136;16.886;2023-03-23T14:32:51;18.50;71.70
6956;DHT22;50345;51.136;16.886;2023-03-23T14:35:36;18.70;71.50
6956;DHT22;50345;51.136;16.886;2023-03-23T14:38:04;18.80;71.40
6956;DHT22;50345;51.136;16.886;2023-03-23T14:40:30;19.00;71.20
6956;DHT22;50345;51.136;16.886;2023-03-23T14:42:57;19.10;70.90
6956;DHT22;50345;51.136;16.886;2023-03-23T14:45:24;19.20;70.70
6956;DHT22;50345;51.136;16.886;2023-03-23T14:48:12;19.30;70.30
6956;DHT22;50345;51.136;16.886;2023-03-23T14:50:41;19.30;70.20
6956;DHT22;50345;51.136;16.886;2023-03-23T14:56:14;19.20;71.40
6956;DHT22;50345;51.136;16.886;2023-03-23T14:58:47;19.20;72.80
6956;DHT22;50345;51.136;16.886;2023-03-23T15:01:30;19.20;73.00
6956;DHT22;50345;51.136;16.886;2023-03-23T15:04:10;19.20;75.00
6956;DHT22;50345;51.136;16.886;2023-03-23T15:06:38;19.20;74.00
6956;DHT22;50345;51.136;16.886;2023-03-23T15:09:15;19.00;73.80
6956;DHT22;50345;51.136;16.886;2023-03-23T15:11:41;18.90;74.00
6956;DHT22;50345;51.136;16.886;2023-03-23T15:14:21;18.80;74.00
6956;DHT22;50345;51.136;16.886;2023-03-23T15:16:53;18.70;75.20
6956;DHT22;50345;51.136;16.886;2023-03-23T15:19:23;18.60;76.00
6956;DHT22;50345;51.136;16.886;2023-03-23T15:22:34;18.60;76.60
6956;DHT22;50345;51.136;16.886;2023-03-23T15:24:41;18.60;77.40
6956;DHT22;50345;51.136;16.886;2023-03-23T15:27:26;18.90;77.70
6956;DHT22;50345;51.136;16.886;2023-03-23T15:29:57;19.40;78.40
6956;DHT22;50345;51.136;16.886;2023-03-23T15:32:31;20.10;74.20
6956;DHT22;50345;51.136;16.886;2023-03-23T15:35:09;20.30;72.40
6956;DHT22;50345;51.136;16.886;2023-03-23T15:37:43;20.00;71.40
6956;DHT22;50345;51.136;16.886;2023-03-23T15:40:21;19.80;73.00
6956;DHT22;50345;51.136;16.886;2023-03-23T15:42:48;19.40;73.80
6956;DHT22;50345;51.136;16.886;2023-03-23T15:50:20;18.40;78.30
6956;DHT22;50345;51.136;16.886;2023-03-23T15:52:57;18.20;80.50
6956;DHT22;50345;51.136;16.886;2023-03-23T15:55:35;18.00;82.20
6956;DHT22;50345;51.136;16.886;2023-03-23T15:58:09;18.00;84.10
6956;DHT22;50345;51.136;16.886;2023-03-23T16:00:35;18.00;85.60
6956;DHT22;50345;51.136;16.886;2023-03-23T16:03:05;18.00;86.80
6956;DHT22;50345;51.136;16.886;2023-03-23T16:05:31;18.00;87.80
6956;DHT22;50345;51.136;16.886;2023-03-23T16:07:58;17.90;88.90
6956;DHT22;50345;51.136;16.886;2023-03-23T16:10:25;17.90;90.10
6956;DHT22;50345;51.136;16.886;2023-03-23T16:12:51;17.80;90.50
6956;DHT22;50345;51.136;16.886;2023-03-23T16:15:17;17.70;91.20
6956;DHT22;50345;51.136;16.886;2023-03-23T16:17:44;17.60;91.90
6956;DHT22;50345;51.136;16.886;2023-03-23T16:20:19;17.30;93.70
6956;DHT22;50345;51.136;16.886;2023-03-23T16:22:46;17.30;94.00
6956;DHT22;50345;51.136;16.886;2023-03-23T16:25:13;17.20;95.20
6956;DHT22;50345;51.136;16.886;2023-03-23T16:27:39;17.20;96.40
6956;DHT22;50345;51.136;16.886;2023-03-23T16:30:17;17.20;96.90
6956;DHT22;50345;51.136;16.886;2023-03-23T16:32:43;17.10;97.70
6956;DHT22;50345;51.136;16.886;2023-03-23T16:35:11;17.00;98.90
6956;DHT22;50345;51.136;16.886;2023-03-23T16:37:37;16.90;99.70
6956;DHT22;50345;51.136;16.886;2023-03-23T16:40:04;16.90;99.90
6956;DHT22;50345;51.136;16.886;2023-03-23T16:42:30;16.90;99.90
6956;DHT22;50345;51.136;16.886;2023-03-23T16:44:56;16.90;99.90
6956;DHT22;50345;51.136;16.886;2023-03-23T16:47:22;16.90;99.90
6956;DHT22;50345;51.136;16.886;2023-03-23T16:49:50;16.90;99.90
6956;DHT22;50345;51.136;16.886;2023-03-23T16:52:16;16.90;99.90
6956;DHT22;50345;51.136;16.886;2023-03-23T16:54:42;16.90;99.90
6956;DHT22;50345;51.136;16.886;2023-03-23T16:57:07;16.90;99.90
6956;DHT22;50345;51.136;16.886;2023-03-23T16:59:33;16.90;99.90
6956;DHT22;50345;51.136;16.886;2023-03-23T17:01:59;16.90;99.90
6956;DHT22;50345;51.136;16.886;2023-03-23T17:04:29;16.80;99.90
6956;DHT22;50345;51.136;16.886;2023-03-23T17:09:24;16.70;99.90
6956;DHT22;50345;51.136;16.886;2023-03-23T17:11:50;16.70;99.90
6956;DHT22;50345;51.136;16.886;2023-03-23T17:14:16;16.70;99.90
6956;DHT22;50345;51.136;16.886;2023-03-23T17:16:41;16.70;99.90
6956;DHT22;50345;51.136;16.886;2023-03-23T17:19:07;16.70;99.90
6956;DHT22;50345;51.136;16.886;2023-03-23T17:21:33;16.60;99.90
6956;DHT22;50345;51.136;16.886;2023-03-23T17:23:59;16.60;99.90
6956;DHT22;50345;51.136;16.886;2023-03-23T17:26:24;16.60;99.90
6956;DHT22;50345;51.136;16.886;2023-03-23T17:28:50;16.50;99.90
6956;DHT22;50345;51.136;16.886;2023-03-23T17:31:16;16.50;99.90
6956;DHT22;50345;51.136;16.886;2023-03-23T17:33:41;16.40;99.90
6956;DHT22;50345;51.136;16.886;2023-03-23T17:36:07;16.30;99.90
6956;DHT22;50345;51.136;16.886;2023-03-23T17:38:33;16.30;99.90
6956;DHT22;50345;51.136;16.886;2023-03-23T17:40:59;16.20;99.90
6956;DHT22;50345;51.136;16.886;2023-03-23T17:43:26;16.10;99.90
6956;DHT22;50345;51.136;16.886;2023-03-23T17:45:51;16.10;99.90
6956;DHT22;50345;51.136;16.886;2023-03-23T17:48:17;16.10;99.90